Time;durP1;ratioP1;P1;durP2;ratioP2;P2;SDS_P1;SDS_P2;PMS_P1;PMS_P2;Temp;Humidity;BMP_temperature;BMP_pressure;BME280_temperature;BME280_humidity;BME280_pressure;Samples;Min_cycle;Max_cycle;Signal;HPM_P1;HPM_P2
2022/05/22 00:02:44;;;;;;;0.43;0.28;;;22.70;43.90;;;;;;6220287;28;20026;-68
2022/05/22 00:05:44;;;;;;;0.60;0.40;;;22.70;43.90;;;;;;6219803;28;20026;-68
2022/05/22 00:08:45;;;;;;;0.25;0.25;;;22.70;43.90;;;;;;6220213;28;20412;-68
2022/05/22 00:11:46;;;;;;;0.40;0.30;;;22.70;43.90;;;;;;6219943;28;20040;-67
2022/05/22 00:14:46;;;;;;;2.33;0.40;;;22.70;43.90;;;;;;6220181;28;20033;-67
2022/05/22 00:17:47;;;;;;;0.32;0.30;;;22.70;43.80;;;;;;6202289;28;20022;-68
2022/05/22 00:20:47;;;;;;;0.70;0.40;;;22.70;43.90;;;;;;6219826;28;20033;-68
2022/05/22 00:23:48;;;;;;;0.22;0.22;;;22.70;43.90;;;;;;6220011;28;20038;-68
2022/05/22 00:26:49;;;;;;;0.30;0.30;;;22.80;43.80;;;;;;6220540;28;20608;-68
2022/05/22 00:29:49;;;;;;;0.52;0.45;;;22.70;43.90;;;;;;6219620;28;20064;-68
2022/05/22 00:32:50;;;;;;;0.30;0.30;;;22.70;43.90;;;;;;6219530;28;20030;-68
2022/05/22 00:35:51;;;;;;;0.38;0.30;;;22.70;43.90;;;;;;6219566;28;20025;-68
2022/05/22 00:38:52;;;;;;;2.10;0.32;;;22.70;43.90;;;;;;6219503;28;20022;-67
2022/05/22 00:41:55;;;;;;;0.30;0.30;;;22.70;43.90;;;;;;6219531;28;20392;-68
2022/05/22 00:44:56;;;;;;;0.30;0.30;;;22.70;43.80;;;;;;6219910;28;20481;-68
2022/05/22 00:47:57;;;;;;;0.30;0.30;;;22.70;43.80;;;;;;6219539;28;20022;-68
2022/05/22 00:51:26;;;;;;;0.30;0.30;;;22.70;43.80;;;;;;6219199;28;20026;-68
2022/05/22 00:54:36;;;;;;;0.38;0.30;;;22.80;44.60;;;;;;6219391;28;20033;-68
2022/05/22 00:57:46;;;;;;;0.30;0.30;;;22.80;43.80;;;;;;6217827;28;20018;-67
2022/05/22 01:00:47;;;;;;;0.90;0.30;;;22.70;43.80;;;;;;6217951;28;20053;-68
2022/05/22 01:03:49;;;;;;;0.40;0.28;;;22.70;43.70;;;;;;6218960;28;20030;-68
2022/05/22 01:06:51;;;;;;;0.50;0.35;;;22.70;43.80;;;;;;6219144;28;20026;-68
2022/05/22 01:09:53;;;;;;;0.50;0.30;;;22.70;43.70;;;;;;6218840;28;20029;-68
2022/05/22 01:12:54;;;;;;;0.28;0.28;;;22.70;43.70;;;;;;6218920;28;20026;-68
2022/05/22 01:15:55;;;;;;;0.28;0.28;;;22.70;43.60;;;;;;6201515;28;20073;-67
2022/05/22 01:18:56;;;;;;;0.55;0.40;;;22.70;43.70;;;;;;6223514;28;20513;-68
2022/05/22 01:22:14;;;;;;;0.88;0.30;;;22.70;43.60;;;;;;6206016;28;20528;-68
2022/05/22 01:25:15;;;;;;;0.88;0.40;;;22.70;43.70;;;;;;6206108;28;20050;-68
2022/05/22 01:28:18;;;;;;;0.85;0.40;;;22.70;43.60;;;;;;6223758;28;20115;-68
2022/05/22 01:31:19;;;;;;;0.28;0.28;;;22.70;43.70;;;;;;6233000;28;20259;-68
2022/05/22 01:34:20;;;;;;;0.30;0.30;;;22.70;43.70;;;;;;6230209;28;20563;-69
2022/05/22 01:37:21;;;;;;;0.20;0.20;;;22.70;43.60;;;;;;6248454;28;20532;-68
2022/05/22 01:40:22;;;;;;;0.32;0.20;;;22.80;43.60;;;;;;6247931;28;20060;-68
2022/05/22 01:43:23;;;;;;;0.35;0.28;;;22.80;43.60;;;;;;6247909;28;20087;-68
2022/05/22 01:46:24;;;;;;;0.25;0.22;;;22.70;43.50;;;;;;6248106;28;20033;-69
2022/05/22 01:49:24;;;;;;;0.30;0.20;;;22.70;43.60;;;;;;6248229;28;20090;-70
2022/05/22 01:52:25;;;;;;;0.75;0.40;;;22.70;43.60;;;;;;6240131;28;20124;-68
2022/05/22 01:55:27;;;;;;;0.50;0.30;;;22.70;43.60;;;;;;6223317;28;20026;-68
2022/05/22 01:58:27;;;;;;;0.45;0.30;;;22.70;43.60;;;;;;6223263;28;20047;-68
2022/05/22 02:01:28;;;;;;;0.47;0.30;;;22.70;43.60;;;;;;6223104;28;20030;-68
2022/05/22 02:04:29;;;;;;;0.40;0.30;;;22.70;43.60;;;;;;6222937;28;20045;-68
2022/05/22 02:11:02;;;;;;;0.55;0.32;;;22.70;43.50;;;;;;6223106;28;20034;-68
2022/05/22 02:14:02;;;;;;;0.73;0.30;;;22.70;43.50;;;;;;6204893;28;20042;-68
2022/05/22 02:17:03;;;;;;;0.30;0.30;;;22.70;43.60;;;;;;6205271;28;20041;-68
2022/05/22 02:20:05;;;;;;;0.35;0.30;;;22.70;43.60;;;;;;6222742;28;20029;-68
2022/05/22 02:23:05;;;;;;;0.45;0.30;;;22.70;43.60;;;;;;6204923;28;20022;-68
2022/05/22 02:26:10;;;;;;;0.20;0.20;;;22.70;43.50;;;;;;6222159;28;20747;-67
2022/05/22 02:29:10;;;;;;;0.32;0.30;;;22.70;43.40;;;;;;6222840;28;20041;-68
2022/05/22 02:32:11;;;;;;;0.52;0.30;;;22.60;44.30;;;;;;6221937;28;20057;-67
2022/05/22 02:35:14;;;;;;;0.30;0.30;;;22.50;45.30;;;;;;6222434;28;20022;-67
2022/05/22 02:38:16;;;;;;;0.43;0.30;;;22.40;45.80;;;;;;6221220;28;20034;-67
2022/05/22 02:41:17;;;;;;;0.63;0.35;;;22.30;46.20;;;;;;6222595;28;20477;-68
2022/05/22 02:44:18;;;;;;;0.55;0.30;;;22.30;46.30;;;;;;6222183;28;20022;-68
2022/05/22 02:47:18;;;;;;;0.20;0.20;;;22.20;46.30;;;;;;6222240;28;20026;-67
2022/05/22 02:50:23;;;;;;;0.43;0.30;;;22.20;46.60;;;;;;6221992;28;20069;-68
2022/05/22 02:53:24;;;;;;;0.65;0.30;;;22.20;46.60;;;;;;6221764;28;20476;-69
2022/05/22 02:56:25;;;;;;;1.15;0.30;;;22.20;47.00;;;;;;6221773;28;20037;-67
2022/05/22 02:59:26;;;;;;;0.22;0.22;;;22.10;47.80;;;;;;6221952;28;20477;-69
2022/05/22 03:02:27;;;;;;;0.60;0.35;;;22.20;47.30;;;;;;6221349;28;20026;-68
2022/05/22 03:06:38;;;;;;;0.50;0.30;;;22.20;47.20;;;;;;6221680;28;20069;-68
2022/05/22 03:08:49;;;;;;;0.40;0.35;;;22.10;47.30;;;;;;6221347;28;20040;-68
2022/05/22 03:11:50;;;;;;;0.57;0.32;;;22.10;47.50;;;;;;6222181;28;20413;-67
2022/05/22 03:14:54;;;;;;;0.50;0.40;;;22.10;47.60;;;;;;6221418;28;20037;-69
2022/05/22 03:17:55;;;;;;;0.83;0.33;;;22.10;47.60;;;;;;6221582;28;20100;-68
2022/05/22 03:20:55;;;;;;;0.20;0.20;;;22.10;47.30;;;;;;6221268;28;20030;-68
2022/05/22 03:23:56;;;;;;;0.63;0.30;;;22.10;47.20;;;;;;6220743;28;20022;-68
2022/05/22 03:26:56;;;;;;;0.55;0.40;;;22.10;47.50;;;;;;6221282;28;20113;-69
2022/05/22 03:29:57;;;;;;;0.40;0.30;;;22.10;47.30;;;;;;6221091;28;20049;-68
2022/05/22 03:32:57;;;;;;;1.23;0.20;;;22.10;47.10;;;;;;6220836;28;20061;-68
2022/05/22 03:35:58;;;;;;;0.32;0.30;;;22.10;47.30;;;;;;6220523;28;21643;-68
2022/05/22 03:38:59;;;;;;;0.30;0.30;;;22.10;47.50;;;;;;6220743;28;20056;-68
2022/05/22 03:42:00;;;;;;;0.30;0.30;;;22.00;47.70;;;;;;6220257;28;20022;-68
2022/05/22 03:45:01;;;;;;;0.95;0.30;;;22.00;48.80;;;;;;6203198;28;20034;-68
2022/05/22 03:48:01;;;;;;;1.00;0.40;;;22.00;47.80;;;;;;6220707;28;20033;-68
2022/05/22 03:51:02;;;;;;;0.82;0.35;;;22.00;48.20;;;;;;6220943;28;20026;-68
2022/05/22 03:54:03;;;;;;;0.30;0.30;;;22.00;48.20;;;;;;6220425;28;20041;-67
2022/05/22 03:57:04;;;;;;;0.52;0.40;;;22.00;48.30;;;;;;6220243;28;20109;-67
2022/05/22 04:00:08;;;;;;;0.32;0.30;;;22.00;48.30;;;;;;6220415;28;20022;-69
2022/05/22 04:03:08;;;;;;;0.70;0.40;;;22.00;48.30;;;;;;6220551;28;20137;-68
2022/05/22 04:06:10;;;;;;;0.40;0.40;;;22.00;48.40;;;;;;6221245;28;20508;-68
2022/05/22 04:09:11;;;;;;;0.28;0.28;;;22.00;48.50;;;;;;6219471;28;20675;-68
2022/05/22 04:12:13;;;;;;;0.20;0.20;;;22.00;48.40;;;;;;6220211;28;20030;-68
2022/05/22 04:15:18;;;;;;;0.47;0.30;;;22.00;48.40;;;;;;6219691;28;20447;-68
2022/05/22 04:18:19;;;;;;;0.80;0.40;;;22.00;48.40;;;;;;6219945;28;20032;-68
2022/05/22 04:21:19;;;;;;;0.55;0.40;;;22.00;48.50;;;;;;6217810;28;20087;-68
2022/05/22 04:27:40;;;;;;;0.93;0.40;;;22.00;48.40;;;;;;6219552;28;20030;-68
2022/05/22 04:30:41;;;;;;;0.57;0.40;;;22.00;48.50;;;;;;6201705;28;20042;-67
2022/05/22 04:33:41;;;;;;;0.38;0.30;;;21.90;48.50;;;;;;6219474;28;20049;-69
2022/05/22 04:36:42;;;;;;;0.40;0.28;;;22.00;48.60;;;;;;6219488;28;20068;-68
2022/05/22 04:39:42;;;;;;;0.40;0.22;;;22.00;48.50;;;;;;6219804;28;20037;-68
2022/05/22 04:42:43;;;;;;;0.28;0.20;;;21.90;48.40;;;;;;6217990;28;20033;-67
2022/05/22 04:45:44;;;;;;;0.20;0.20;;;21.90;48.50;;;;;;6219219;28;20030;-68
2022/05/22 04:48:44;;;;;;;0.47;0.35;;;21.90;48.40;;;;;;6217709;28;20036;-68
2022/05/22 04:51:45;;;;;;;0.25;0.20;;;21.90;48.50;;;;;;6218492;28;20057;-68
2022/05/22 04:54:47;;;;;;;0.30;0.30;;;21.90;48.50;;;;;;6218959;28;20052;-68
2022/05/22 04:57:47;;;;;;;0.50;0.35;;;21.90;48.60;;;;;;6219112;28;20095;-67
2022/05/22 05:00:48;;;;;;;0.40;0.30;;;21.90;48.50;;;;;;6218631;28;20030;-68
2022/05/22 05:03:49;;;;;;;0.40;0.30;;;21.90;48.60;;;;;;6195446;28;20664;-68
2022/05/22 05:06:52;;;;;;;0.82;0.40;;;21.90;48.70;;;;;;6194721;28;20109;-68
2022/05/22 05:09:53;;;;;;;0.30;0.30;;;21.90;48.50;;;;;;6193372;28;20030;-69
2022/05/22 05:12:54;;;;;;;0.47;0.30;;;21.90;48.40;;;;;;6194714;28;20030;-67
2022/05/22 05:16:09;;;;;;;0.32;0.30;;;21.90;48.60;;;;;;6194712;28;20066;-68
2022/05/22 05:19:10;;;;;;;1.10;0.32;;;21.90;48.40;;;;;;6194434;28;20130;-68
2022/05/22 05:22:11;;;;;;;0.50;0.30;;;21.90;48.50;;;;;;6194121;28;20396;-67
2022/05/22 05:25:13;;;;;;;0.20;0.20;;;21.90;48.50;;;;;;6194532;28;20106;-68
2022/05/22 05:28:14;;;;;;;0.43;0.40;;;21.90;48.50;;;;;;6194431;28;20030;-68
2022/05/22 05:31:14;;;;;;;0.85;0.45;;;21.90;48.60;;;;;;6211930;28;20459;-68
2022/05/22 05:34:15;;;;;;;0.30;0.30;;;21.90;48.70;;;;;;6243273;28;20029;-70
2022/05/22 05:37:16;;;;;;;1.35;0.22;;;21.90;48.70;;;;;;6216317;28;20033;-72
2022/05/22 05:40:17;;;;;;;0.32;0.30;;;21.90;48.50;;;;;;6200288;28;20026;-71
2022/05/22 05:43:17;;;;;;;0.45;0.35;;;21.90;48.70;;;;;;6217663;28;20049;-70
2022/05/22 05:46:19;;;;;;;1.02;0.30;;;21.90;48.70;;;;;;6217849;28;20026;-69
2022/05/22 05:49:19;;;;;;;0.20;0.20;;;21.90;48.70;;;;;;6201401;28;20457;-70
2022/05/22 05:52:20;;;;;;;0.40;0.35;;;21.90;48.70;;;;;;6241053;28;20045;-72
2022/05/22 05:55:21;;;;;;;0.30;0.30;;;21.90;48.70;;;;;;6200319;28;20029;-71
2022/05/22 05:58:23;;;;;;;0.47;0.30;;;21.90;48.70;;;;;;6199452;28;20026;-71
2022/05/22 06:01:24;;;;;;;0.70;0.30;;;21.80;48.60;;;;;;6217222;28;20065;-70
2022/05/22 06:04:25;;;;;;;0.22;0.22;;;21.90;48.80;;;;;;6220511;28;20021;-70
2022/05/22 06:07:25;;;;;;;0.65;0.30;;;21.90;48.70;;;;;;6204518;28;20030;-70
2022/05/22 06:10:26;;;;;;;1.65;0.57;;;21.80;48.60;;;;;;6221838;28;20080;-71
2022/05/22 06:13:27;;;;;;;0.30;0.30;;;21.80;48.50;;;;;;6204685;28;20076;-71
2022/05/22 06:16:27;;;;;;;0.35;0.35;;;21.90;48.80;;;;;;6221871;28;20050;-70
2022/05/22 06:22:48;;;;;;;0.30;0.20;;;21.90;48.70;;;;;;6221475;28;20713;-70
2022/05/22 06:25:49;;;;;;;0.28;0.28;;;21.90;48.70;;;;;;6221818;28;20472;-69
2022/05/22 06:28:50;;;;;;;0.30;0.30;;;21.80;48.70;;;;;;6221306;28;20087;-69
2022/05/22 06:31:51;;;;;;;0.32;0.30;;;21.80;48.80;;;;;;6203638;28;20393;-70
2022/05/22 06:34:51;;;;;;;0.22;0.22;;;21.90;48.90;;;;;;6200878;28;20682;-69
2022/05/22 06:37:52;;;;;;;0.32;0.32;;;21.80;48.80;;;;;;6205406;28;20500;-69
2022/05/22 06:40:52;;;;;;;0.43;0.30;;;21.80;48.80;;;;;;6233716;28;20097;-70
2022/05/22 06:43:53;;;;;;;0.50;0.30;;;21.80;48.90;;;;;;6203855;28;20104;-69
2022/05/22 06:46:54;;;;;;;0.30;0.30;;;21.80;48.90;;;;;;6221265;28;20061;-70
2022/05/22 06:49:55;;;;;;;0.22;0.20;;;21.80;49.00;;;;;;6203520;28;20026;-70
2022/05/22 06:52:56;;;;;;;0.47;0.38;;;21.80;49.00;;;;;;6220841;28;20022;-70
2022/05/22 06:55:57;;;;;;;0.30;0.28;;;21.80;49.10;;;;;;6217791;28;20053;-71
2022/05/22 06:58:58;;;;;;;0.20;0.20;;;21.80;49.00;;;;;;6228216;28;20026;-69
2022/05/22 07:02:00;;;;;;;0.50;0.30;;;21.80;49.10;;;;;;6245535;28;20448;-69
2022/05/22 07:05:01;;;;;;;0.25;0.25;;;21.80;49.10;;;;;;6245188;28;20017;-69
2022/05/22 07:08:01;;;;;;;0.28;0.28;;;21.80;49.10;;;;;;6245039;28;20032;-70
2022/05/22 07:14:22;;;;;;;0.20;0.20;;;21.80;49.30;;;;;;6244040;28;20045;-69
2022/05/22 07:17:24;;;;;;;0.25;0.25;;;21.80;49.40;;;;;;6245190;28;20022;-69
2022/05/22 07:20:25;;;;;;;0.22;0.20;;;21.80;49.40;;;;;;6245014;28;20157;-69
2022/05/22 07:23:26;;;;;;;0.40;0.40;;;21.80;49.40;;;;;;6224359;28;20045;-70
2022/05/22 07:26:27;;;;;;;0.20;0.20;;;21.80;49.40;;;;;;6220191;28;20370;-73
2022/05/22 07:29:28;;;;;;;0.73;0.45;;;21.80;49.40;;;;;;6219806;28;20428;-70
2022/05/22 07:32:29;;;;;;;0.43;0.30;;;21.80;49.40;;;;;;6201924;28;20030;-70
2022/05/22 07:35:29;;;;;;;0.20;0.20;;;21.80;49.50;;;;;;6202586;28;20029;-70
2022/05/22 07:38:30;;;;;;;0.25;0.25;;;21.80;49.50;;;;;;6217858;28;20117;-70
2022/05/22 07:41:31;;;;;;;0.30;0.20;;;21.80;49.50;;;;;;6218106;28;20021;-71
2022/05/22 07:44:32;;;;;;;0.40;0.30;;;21.80;49.50;;;;;;6217301;28;20045;-70
2022/05/22 07:47:33;;;;;;;0.40;0.20;;;21.80;49.50;;;;;;6220109;28;20125;-71
2022/05/22 07:50:34;;;;;;;0.40;0.30;;;21.80;49.50;;;;;;6218887;28;20037;-70
2022/05/22 07:53:35;;;;;;;0.43;0.40;;;21.80;49.50;;;;;;6218542;28;20021;-69
2022/05/22 07:56:35;;;;;;;0.38;0.30;;;21.80;49.50;;;;;;6219094;28;20642;-70
2022/05/22 07:59:37;;;;;;;0.55;0.30;;;21.70;49.50;;;;;;6201081;28;20037;-70
2022/05/22 08:02:38;;;;;;;0.30;0.20;;;21.80;49.50;;;;;;6207360;28;20108;-70
2022/05/22 08:05:39;;;;;;;0.40;0.30;;;21.80;49.60;;;;;;6218698;28;20036;-71
2022/05/22 08:08:40;;;;;;;0.68;0.43;;;21.70;49.50;;;;;;6219203;28;20405;-70
2022/05/22 08:11:40;;;;;;;0.35;0.22;;;21.70;49.50;;;;;;6200894;28;20022;-69
2022/05/22 08:14:41;;;;;;;0.60;0.40;;;21.80;49.60;;;;;;6216135;28;20029;-70
2022/05/22 08:17:43;;;;;;;0.20;0.20;;;21.80;49.60;;;;;;6218147;28;20014;-71
2022/05/22 08:20:44;;;;;;;0.40;0.30;;;21.80;49.60;;;;;;6217659;28;20025;-70
2022/05/22 08:23:45;;;;;;;0.30;0.30;;;21.80;49.60;;;;;;6199987;28;20026;-70
2022/05/22 08:26:48;;;;;;;0.30;0.30;;;21.80;49.60;;;;;;6218308;28;20029;-69
2022/05/22 08:29:48;;;;;;;0.35;0.30;;;21.80;49.70;;;;;;6200146;28;20686;-70
2022/05/22 08:32:51;;;;;;;0.20;0.20;;;21.80;49.60;;;;;;6213423;28;20072;-70
2022/05/22 08:35:52;;;;;;;0.30;0.30;;;21.70;49.60;;;;;;6242620;28;20065;-69
2022/05/22 08:38:53;;;;;;;0.22;0.22;;;21.80;49.70;;;;;;6237176;28;20026;-69
2022/05/22 08:41:58;;;;;;;0.20;0.20;;;21.70;49.60;;;;;;6241527;28;20052;-69
2022/05/22 08:44:58;;;;;;;0.43;0.38;;;21.80;49.70;;;;;;6241940;28;20518;-70
2022/05/22 08:48:25;;;;;;;0.32;0.25;;;21.70;49.60;;;;;;6241271;28;20033;-71
2022/05/22 08:51:41;;;;;;;0.77;0.20;;;21.70;49.60;;;;;;6215117;28;20029;-69
2022/05/22 08:54:45;;;;;;;0.38;0.30;;;21.70;49.60;;;;;;6223528;28;20026;-69
2022/05/22 09:01:40;;;;;;;0.32;0.20;;;21.70;49.60;;;;;;6240832;28;20116;-71
2022/05/22 09:04:49;;;;;;;0.10;0.10;;;21.70;49.70;;;;;;6240844;28;20025;-70
2022/05/22 09:07:50;;;;;;;0.75;0.30;;;21.70;49.70;;;;;;6241081;28;20053;-70
2022/05/22 09:11:16;;;;;;;0.25;0.20;;;21.70;49.70;;;;;;6241059;28;20036;-69
2022/05/22 09:14:16;;;;;;;0.20;0.20;;;21.70;49.70;;;;;;6234005;28;20431;-71
2022/05/22 09:17:22;;;;;;;0.43;0.38;;;21.70;49.70;;;;;;6216313;28;20034;-70
2022/05/22 09:20:38;;;;;;;0.40;0.30;;;21.70;49.70;;;;;;6129487;28;20043;-70
2022/05/22 09:23:56;;;;;;;0.20;0.20;;;21.70;49.70;;;;;;6195458;28;20088;-70
2022/05/22 09:27:22;;;;;;;0.20;0.20;;;21.70;49.70;;;;;;6159178;28;20038;-69
2022/05/22 09:30:35;;;;;;;0.40;0.30;;;21.70;49.80;;;;;;6205827;28;20052;-72
2022/05/22 09:34:07;;;;;;;0.17;0.17;;;21.70;49.80;;;;;;6190415;28;20105;-70
2022/05/22 09:37:11;;;;;;;0.20;0.20;;;21.70;49.80;;;;;;6168045;28;20057;-70
2022/05/22 09:40:29;;;;;;;2.47;0.30;;;21.70;49.60;;;;;;6178068;28;20026;-70
2022/05/22 09:44:11;;;;;;;0.50;0.38;;;21.70;49.70;;;;;;6210659;28;20576;-72
2022/05/22 09:47:29;;;;;;;0.47;0.28;;;21.80;49.90;;;;;;6184638;28;20067;-70
2022/05/22 09:50:30;;;;;;;2.60;0.30;;;21.70;49.80;;;;;;6182062;28;20074;-69
2022/05/22 09:53:51;;;;;;;1.17;0.20;;;21.70;49.80;;;;;;6197028;28;20030;-70
2022/05/22 09:57:17;;;;;;;0.32;0.32;;;21.70;49.80;;;;;;6173466;28;20037;-69
2022/05/22 10:00:32;;;;;;;1.45;0.30;;;21.70;49.90;;;;;;6173106;28;20023;-68
2022/05/22 10:03:52;;;;;;;1.60;0.30;;;21.70;49.80;;;;;;6173105;28;20023;-68
2022/05/22 10:07:01;;;;;;;0.80;0.40;;;21.70;49.80;;;;;;6178626;28;20031;-69
2022/05/22 10:10:43;;;;;;;0.32;0.25;;;21.70;49.80;;;;;;6196550;28;20042;-71
2022/05/22 10:14:04;;;;;;;0.35;0.20;;;21.70;49.80;;;;;;6178303;28;20037;-69
2022/05/22 10:17:25;;;;;;;0.30;0.30;;;21.70;49.80;;;;;;6178614;28;20018;-71
2022/05/22 10:20:43;;;;;;;0.47;0.30;;;21.70;49.80;;;;;;6177902;28;20034;-70
2022/05/22 10:24:11;;;;;;;0.22;0.20;;;21.70;49.80;;;;;;6195510;28;20113;-70
2022/05/22 10:27:34;;;;;;;0.57;0.40;;;21.70;49.80;;;;;;6195406;28;20476;-70
2022/05/22 10:30:56;;;;;;;0.43;0.20;;;21.70;49.80;;;;;;6183309;28;20050;-69
2022/05/22 10:34:32;;;;;;;0.28;0.28;;;21.70;49.80;;;;;;6198101;28;20030;-71
2022/05/22 10:37:43;;;;;;;0.40;0.20;;;21.70;49.80;;;;;;6195541;28;20102;-70
2022/05/22 10:44:12;;;;;;;0.50;0.40;;;21.70;49.90;;;;;;6170944;28;20043;-72
2022/05/22 10:47:13;;;;;;;0.20;0.20;;;21.70;49.90;;;;;;6167020;28;20026;-69
2022/05/22 10:50:28;;;;;;;0.63;0.30;;;21.70;49.90;;;;;;6180558;28;20445;-69
2022/05/22 10:53:29;;;;;;;;;;;21.70;49.90;;;;;;6172327;28;20027;-69
2022/05/22 10:56:35;;;;;;;1.02;0.40;;;21.70;49.90;;;;;;6157755;28;19918;-72
2022/05/22 10:59:35;;;;;;;0.80;0.50;;;21.70;49.90;;;;;;6147892;29;20027;-72
2022/05/22 11:02:36;;;;;;;0.75;0.30;;;21.70;49.90;;;;;;6148279;29;20066;-70
2022/05/22 11:05:37;;;;;;;1.13;0.30;;;21.70;49.90;;;;;;6147808;29;20019;-70
2022/05/22 11:08:37;;;;;;;0.20;0.20;;;21.70;50.00;;;;;;6164113;28;20033;-71
2022/05/22 11:11:38;;;;;;;0.40;0.10;;;21.70;50.00;;;;;;6192885;28;20015;-70
2022/05/22 11:14:39;;;;;;;0.65;0.40;;;21.70;50.00;;;;;;6195424;28;20026;-70
2022/05/22 11:17:40;;;;;;;0.20;0.20;;;21.70;50.00;;;;;;6177412;28;20027;-71
2022/05/22 11:20:58;;;;;;;1.13;0.30;;;21.70;50.00;;;;;;6161067;28;20083;-70
2022/05/22 11:24:17;;;;;;;0.22;0.22;;;21.70;50.00;;;;;;6148127;28;20027;-70
2022/05/22 11:27:30;;;;;;;0.40;0.20;;;21.70;50.00;;;;;;6157042;28;20031;-69
2022/05/22 11:30:33;;;;;;;0.60;0.38;;;21.70;50.00;;;;;;6167569;28;20520;-70
2022/05/22 11:34:00;;;;;;;0.30;0.20;;;21.70;50.00;;;;;;6202697;28;20026;-69
2022/05/22 11:37:10;;;;;;;0.45;0.30;;;21.70;50.00;;;;;;6153578;28;20034;-69
2022/05/22 11:40:45;;;;;;;0.65;0.30;;;21.70;50.00;;;;;;6194538;28;20139;-70
2022/05/22 11:43:59;;;;;;;0.50;0.30;;;21.70;50.10;;;;;;6191732;28;20038;-71
2022/05/22 11:47:27;;;;;;;1.13;0.30;;;21.70;50.10;;;;;;6192205;28;20042;-71
2022/05/22 11:50:37;;;;;;;1.15;0.20;;;21.70;50.10;;;;;;6192402;28;20083;-70
2022/05/22 11:54:13;;;;;;;0.20;0.20;;;21.70;50.10;;;;;;6192297;28;20033;-71
2022/05/22 11:57:34;;;;;;;0.80;0.30;;;21.70;50.10;;;;;;6180714;28;20030;-70
2022/05/22 12:01:09;;;;;;;0.52;0.30;;;21.70;50.10;;;;;;6179197;28;20019;-70
2022/05/22 12:04:29;;;;;;;0.25;0.25;;;21.70;50.10;;;;;;6176052;28;20058;-70
2022/05/22 12:07:42;;;;;;;0.40;0.30;;;21.70;50.10;;;;;;6172864;28;20034;-71
2022/05/22 12:10:50;;;;;;;0.85;0.30;;;21.70;50.10;;;;;;6193442;28;20085;-69
2022/05/22 12:13:53;;;;;;;0.52;0.40;;;21.70;50.10;;;;;;6193596;28;20038;-70
2022/05/22 12:17:01;;;;;;;0.43;0.20;;;21.70;50.20;;;;;;6193308;28;20670;-70
2022/05/22 12:20:26;;;;;;;0.30;0.30;;;21.70;50.20;;;;;;6193438;28;20041;-70
2022/05/22 12:23:39;;;;;;;0.30;0.30;;;21.70;50.20;;;;;;6175866;28;20030;-70
2022/05/22 12:26:42;;;;;;;0.30;0.30;;;21.70;50.40;;;;;;6192975;28;20041;-69
2022/05/22 12:30:07;;;;;;;0.22;0.20;;;21.70;50.20;;;;;;6192491;28;20069;-70
2022/05/22 12:33:10;;;;;;;0.20;0.20;;;21.70;50.20;;;;;;6216640;28;20129;-71
2022/05/22 12:36:12;;;;;;;0.28;0.28;;;21.70;50.20;;;;;;6217252;28;20030;-70
2022/05/22 12:39:15;;;;;;;0.20;0.20;;;21.70;50.30;;;;;;6217213;28;20022;-70
2022/05/22 12:42:25;;;;;;;0.20;0.20;;;21.70;50.30;;;;;;6217605;28;20076;-70
2022/05/22 12:45:29;;;;;;;0.45;0.30;;;21.70;50.20;;;;;;6199493;28;20538;-69
2022/05/22 12:48:33;;;;;;;0.32;0.30;;;21.70;50.20;;;;;;6224517;28;20579;-69
2022/05/22 12:51:37;;;;;;;0.63;0.30;;;21.70;50.20;;;;;;6216427;28;20015;-69
2022/05/22 12:54:37;;;;;;;0.55;0.20;;;21.70;50.20;;;;;;6192746;28;20073;-69
2022/05/22 12:57:38;;;;;;;0.70;0.30;;;21.70;50.20;;;;;;6192640;28;20081;-70
2022/05/22 13:00:38;;;;;;;0.30;0.30;;;21.70;50.20;;;;;;6192893;28;20227;-70
2022/05/22 13:03:41;;;;;;;1.25;0.40;;;21.70;50.20;;;;;;6174850;28;20417;-70
2022/05/22 13:07:00;;;;;;;0.22;0.20;;;21.70;50.20;;;;;;6192561;28;20058;-69
2022/05/22 13:10:19;;;;;;;1.05;0.40;;;21.70;50.20;;;;;;6168433;28;20031;-70
2022/05/22 13:13:29;;;;;;;1.50;0.60;;;21.70;50.30;;;;;;6150147;28;20307;-70
2022/05/22 13:16:34;;;;;;;0.40;0.40;;;21.70;50.40;;;;;;6169247;28;20117;-69
2022/05/22 13:19:45;;;;;;;0.90;0.50;;;21.70;50.20;;;;;;6151769;28;20051;-71
2022/05/22 13:22:46;;;;;;;0.40;0.32;;;21.70;50.30;;;;;;6189959;28;20132;-69
2022/05/22 13:25:53;;;;;;;2.58;0.60;;;21.70;50.30;;;;;;6187840;28;20034;-69
2022/05/22 13:29:19;;;;;;;0.70;0.57;;;21.70;50.30;;;;;;6192418;28;20405;-69
2022/05/22 13:32:42;;;;;;;0.73;0.50;;;21.70;50.40;;;;;;6175825;28;20046;-68
2022/05/22 13:35:56;;;;;;;0.70;0.70;;;21.70;50.30;;;;;;6224178;28;20030;-69
2022/05/22 13:39:02;;;;;;;1.60;0.60;;;21.70;50.30;;;;;;6192767;28;20081;-68
2022/05/22 13:42:32;;;;;;;0.47;0.40;;;21.70;50.30;;;;;;6192109;28;20026;-69
2022/05/22 13:45:59;;;;;;;3.47;0.50;;;21.70;50.30;;;;;;6192481;28;20023;-67
2022/05/22 13:49:42;;;;;;;1.30;0.50;;;21.70;50.40;;;;;;6192555;28;20528;-68
2022/05/22 13:52:57;;;;;;;1.77;0.60;;;21.70;50.40;;;;;;6177576;28;20026;-70
2022/05/22 13:55:57;;;;;;;0.90;0.57;;;21.70;50.40;;;;;;6192720;28;20023;-68
2022/05/22 13:58:58;;;;;;;0.47;0.32;;;21.70;50.40;;;;;;6199196;28;20034;-68
2022/05/22 14:02:10;;;;;;;3.25;0.70;;;21.70;50.40;;;;;;6216900;28;20525;-68
2022/05/22 14:05:11;;;;;;;1.05;0.52;;;21.70;50.40;;;;;;6199116;28;20161;-68
2022/05/22 14:08:21;;;;;;;0.73;0.50;;;21.60;50.30;;;;;;6216818;28;20061;-71
2022/05/22 14:11:28;;;;;;;0.85;0.43;;;21.70;50.40;;;;;;6187722;28;20030;-68
2022/05/22 14:14:31;;;;;;;0.80;0.60;;;21.70;50.40;;;;;;6192421;28;20039;-69
2022/05/22 14:17:34;;;;;;;0.98;0.60;;;21.70;50.40;;;;;;6190049;28;20022;-67
2022/05/22 14:20:41;;;;;;;0.80;0.40;;;21.70;50.40;;;;;;6191289;28;20015;-70
2022/05/22 14:27:29;;;;;;;0.60;0.40;;;21.70;50.40;;;;;;6159660;28;20050;-69
2022/05/22 14:30:30;;;;;;;1.25;0.50;;;21.70;50.40;;;;;;6182212;28;20508;-69
2022/05/22 14:33:35;;;;;;;0.73;0.38;;;21.70;50.50;;;;;;6218763;28;20030;-69
2022/05/22 14:36:36;;;;;;;0.50;0.40;;;21.70;50.50;;;;;;6196602;28;20540;-69
2022/05/22 14:39:46;;;;;;;1.92;0.50;;;21.70;50.50;;;;;;6196024;28;20018;-68
2022/05/22 14:42:53;;;;;;;0.90;0.40;;;21.70;50.50;;;;;;6196356;28;20041;-69
2022/05/22 14:45:55;;;;;;;1.10;0.50;;;21.70;50.50;;;;;;6196244;28;20020;-67
2022/05/22 14:49:01;;;;;;;2.42;0.52;;;21.70;50.50;;;;;;6195280;28;20390;-68
2022/05/22 14:52:24;;;;;;;0.60;0.40;;;21.70;50.50;;;;;;6196092;28;20022;-68
2022/05/22 14:55:31;;;;;;;0.65;0.50;;;21.70;50.50;;;;;;6202372;28;20026;-68
2022/05/22 14:58:35;;;;;;;0.75;0.50;;;21.70;50.50;;;;;;6235283;28;20033;-70
2022/05/22 15:01:39;;;;;;;1.17;0.60;;;21.70;50.50;;;;;;6220129;28;20025;-68
2022/05/22 15:04:41;;;;;;;0.35;0.35;;;21.70;50.50;;;;;;6214998;28;20040;-69
2022/05/22 15:07:58;;;;;;;0.47;0.40;;;21.70;50.60;;;;;;6195449;28;20066;-70
2022/05/22 15:11:13;;;;;;;0.40;0.40;;;21.70;50.40;;;;;;6195383;28;20034;-69
2022/05/22 15:14:15;;;;;;;0.63;0.40;;;21.70;50.50;;;;;;6177753;28;20082;-72
2022/05/22 15:17:25;;;;;;;1.15;0.30;;;21.70;50.60;;;;;;6195967;28;20046;-70
2022/05/22 15:20:31;;;;;;;0.93;0.40;;;21.70;50.60;;;;;;6189993;28;20025;-67
2022/05/22 15:26:54;;;;;;;0.80;0.40;;;21.70;50.70;;;;;;6191487;28;20038;-72
2022/05/22 15:29:55;;;;;;;1.08;0.50;;;21.60;50.70;;;;;;6185786;28;20091;-69
2022/05/22 15:33:21;;;;;;;0.35;0.35;;;21.60;50.70;;;;;;6169440;28;20018;-69
2022/05/22 15:36:30;;;;;;;0.30;0.30;;;21.60;50.70;;;;;;6170144;28;20023;-70
2022/05/22 15:39:32;;;;;;;0.70;0.40;;;21.60;50.70;;;;;;6160884;28;20153;-68
2022/05/22 15:42:33;;;;;;;1.33;0.60;;;21.60;50.80;;;;;;6170746;28;20486;-70
2022/05/22 15:45:34;;;;;;;0.70;0.30;;;21.60;50.80;;;;;;6170765;28;20037;-69
2022/05/22 15:52:11;;;;;;;0.87;0.47;;;21.60;51.50;;;;;;6151847;28;20454;-71
2022/05/22 15:55:17;;;;;;;0.30;0.30;;;21.60;50.80;;;;;;6169245;28;20054;-70
2022/05/22 15:58:18;;;;;;;0.70;0.40;;;21.60;50.80;;;;;;6170765;28;20102;-69
2022/05/22 16:01:22;;;;;;;1.23;0.40;;;21.60;50.90;;;;;;6170885;28;20063;-70
2022/05/22 16:04:23;;;;;;;0.83;0.40;;;21.60;50.80;;;;;;6170762;28;20030;-70
2022/05/22 16:07:23;;;;;;;0.98;0.57;;;21.60;51.20;;;;;;6184215;28;20089;-71
2022/05/22 16:10:27;;;;;;;1.10;0.57;;;21.60;50.80;;;;;;6170384;28;20198;-70
2022/05/22 16:13:28;;;;;;;0.93;0.70;;;21.70;50.80;;;;;;6152827;28;20049;-69
2022/05/22 16:16:29;;;;;;;0.70;0.50;;;21.70;50.80;;;;;;6170178;28;20467;-69
2022/05/22 16:19:37;;;;;;;0.73;0.50;;;21.70;50.80;;;;;;6169831;28;20155;-70
2022/05/22 16:22:39;;;;;;;1.52;0.50;;;21.70;50.80;;;;;;6152397;28;20467;-70
2022/05/22 16:25:39;;;;;;;1.05;0.70;;;21.60;50.70;;;;;;6168583;28;20571;-69
2022/05/22 16:28:40;;;;;;;1.75;0.90;;;21.60;50.70;;;;;;6184407;28;20050;-70
2022/05/22 16:31:41;;;;;;;1.88;0.82;;;21.60;50.80;;;;;;6177160;28;20621;-69
2022/05/22 16:34:41;;;;;;;1.35;0.70;;;21.60;50.80;;;;;;6184101;28;20117;-71
2022/05/22 16:37:45;;;;;;;1.58;0.75;;;21.60;50.80;;;;;;6169819;28;20098;-70
2022/05/22 16:40:46;;;;;;;1.33;0.80;;;21.70;51.20;;;;;;6169653;28;20019;-72